createdAt,value
2018-05-29T00:02:06.038Z,41.23
2018-05-29T00:04:33.561Z,40.50
2018-05-29T00:07:01.085Z,40.57
2018-05-29T00:09:28.617Z,41.00
2018-05-29T00:11:56.145Z,40.93
2018-05-29T00:14:23.672Z,41.57
2018-05-29T00:16:52.165Z,39.23
2018-05-29T00:19:20.485Z,40.73
2018-05-29T00:21:48.019Z,40.43
2018-05-29T00:24:15.575Z,40.67
2018-05-29T00:26:43.862Z,40.03
2018-05-29T00:29:11.385Z,40.77
2018-05-29T00:31:40.405Z,40.10
2018-05-29T00:34:07.948Z,42.83
2018-05-29T00:36:35.651Z,41.63
2018-05-29T00:39:03.195Z,40.53
2018-05-29T00:41:31.495Z,41.47
2018-05-29T00:43:59.039Z,41.07
2018-05-29T00:46:26.571Z,41.93
2018-05-29T00:48:54.858Z,42.03
2018-05-29T00:51:23.159Z,42.53
2018-05-29T00:53:50.678Z,42.13
2018-05-29T00:56:19.213Z,42.33
2018-05-29T00:58:46.751Z,42.33
2018-05-29T01:01:14.314Z,43.63
2018-05-29T01:03:41.861Z,43.13
2018-05-29T01:06:09.439Z,43.67
2018-05-29T01:08:37.053Z,42.63
2018-05-29T01:11:04.596Z,45.67
2018-05-29T01:13:32.249Z,43.10
2018-05-29T01:15:59.799Z,45.37
2018-05-29T01:18:27.310Z,45.77
2018-05-29T01:20:54.887Z,44.17
2018-05-29T01:23:22.421Z,44.17
2018-05-29T01:25:49.946Z,45.20
2018-05-29T01:28:17.591Z,47.23
2018-05-29T01:30:45.123Z,46.00
2018-05-29T01:33:12.681Z,47.97
2018-05-29T01:35:40.205Z,46.90
2018-05-29T01:38:08.617Z,47.67
2018-05-29T01:40:36.121Z,47.77
2018-05-29T01:43:03.644Z,45.13
2018-05-29T01:45:31.159Z,45.27
2018-05-29T01:47:58.699Z,47.70
2018-05-29T01:50:26.251Z,47.27
2018-05-29T01:52:53.791Z,47.93
2018-05-29T01:55:21.429Z,46.80
2018-05-29T01:57:48.951Z,46.43
2018-05-29T02:00:17.260Z,46.33
2018-05-29T02:02:44.785Z,44.57
2018-05-29T02:05:12.486Z,46.90
2018-05-29T02:07:40.027Z,48.03
2018-05-29T02:10:07.605Z,44.57
2018-05-29T02:12:35.133Z,46.53
2018-05-29T02:15:03.448Z,44.67
2018-05-29T02:17:31.069Z,45.03
2018-05-29T02:19:59.353Z,46.33
2018-05-29T02:22:26.915Z,45.83
2018-05-29T02:24:54.457Z,46.87
2018-05-29T02:27:22.759Z,44.63
2018-05-29T02:29:50.298Z,47.80
2018-05-29T02:32:17.837Z,45.57
2018-05-29T02:34:46.133Z,46.33
2018-05-29T02:37:14.415Z,47.47
2018-05-29T02:39:42.706Z,46.87
2018-05-29T02:42:10.231Z,48.07
2018-05-29T02:44:37.780Z,46.67
2018-05-29T02:47:05.339Z,48.67
2018-05-29T02:49:34.361Z,48.83
2018-05-29T02:52:02.651Z,50.17
2018-05-29T02:54:30.181Z,48.37
2018-05-29T02:56:57.718Z,49.33
2018-05-29T02:59:25.295Z,49.63
2018-05-29T03:01:52.844Z,50.20
2018-05-29T03:04:21.133Z,48.80
2018-05-29T03:06:49.442Z,48.10
2018-05-29T03:09:17.071Z,47.67
2018-05-29T03:11:45.383Z,48.37
2018-05-29T03:14:12.955Z,50.13
2018-05-29T03:16:40.501Z,48.07
2018-05-29T03:19:08.019Z,50.13
2018-05-29T03:21:36.543Z,50.47
2018-05-29T03:24:04.077Z,49.17
2018-05-29T03:26:32.435Z,50.33
2018-05-29T03:29:00.001Z,47.47
2018-05-29T03:31:28.354Z,49.20
2018-05-29T03:33:57.416Z,50.07
2018-05-29T03:36:25.037Z,48.97
2018-05-29T03:38:53.323Z,49.07
2018-05-29T03:41:20.870Z,49.97
2018-05-29T03:43:48.568Z,49.60
2018-05-29T03:46:16.091Z,47.93
2018-05-29T03:48:44.401Z,46.73
2018-05-29T03:51:12.025Z,48.33
2018-05-29T03:53:40.329Z,47.93
2018-05-29T03:56:07.856Z,45.73
2018-05-29T03:58:35.395Z,46.00
2018-05-29T04:01:03.083Z,46.40
2018-05-29T04:03:31.383Z,44.17
2018-05-29T04:05:58.935Z,45.30
2018-05-29T04:08:26.617Z,44.77
2018-05-29T04:10:54.152Z,45.40
2018-05-29T04:13:21.673Z,44.40
2018-05-29T04:15:49.209Z,44.40
2018-05-29T04:18:16.749Z,44.83
2018-05-29T04:20:44.268Z,43.20
2018-05-29T04:23:12.177Z,44.33
2018-05-29T04:25:39.839Z,41.63
2018-05-29T04:28:07.360Z,43.33
2018-05-29T04:30:35.669Z,43.57
2018-05-29T04:33:03.223Z,45.37
2018-05-29T04:35:30.757Z,42.80
2018-05-29T04:37:59.074Z,42.60
2018-05-29T04:40:26.629Z,42.77
2018-05-29T04:42:54.145Z,42.07
2018-05-29T04:45:22.463Z,44.13
2018-05-29T04:47:49.989Z,43.50
2018-05-29T04:50:18.284Z,45.03
2018-05-29T04:52:45.821Z,40.60
2018-05-29T04:55:14.119Z,41.07
2018-05-29T04:57:41.657Z,41.97
2018-05-29T05:00:10.037Z,41.47
2018-05-29T05:02:38.348Z,41.03
2018-05-29T05:05:05.891Z,41.80
2018-05-29T05:07:33.415Z,40.73
2018-05-29T05:10:01.723Z,40.63
2018-05-29T05:12:29.289Z,40.33
2018-05-29T05:14:56.875Z,40.63
2018-05-29T05:17:24.618Z,40.00
2018-05-29T05:19:52.137Z,38.23
2018-05-29T05:22:20.557Z,39.57
2018-05-29T05:24:48.075Z,39.00
2018-05-29T05:27:16.389Z,37.83
2018-05-29T05:29:44.143Z,38.57
2018-05-29T05:32:11.675Z,37.93
2018-05-29T05:34:39.961Z,36.83
2018-05-29T05:37:08.389Z,37.33
2018-05-29T05:39:35.969Z,36.87
2018-05-29T05:42:03.503Z,40.90
2018-05-29T05:44:31.075Z,39.57
2018-05-29T05:46:58.627Z,44.57
2018-05-29T05:49:26.195Z,42.37
2018-05-29T05:51:53.748Z,41.63
2018-05-29T05:54:21.315Z,36.67
2018-05-29T05:56:48.928Z,35.97
2018-05-29T05:59:16.485Z,36.03
2018-05-29T06:01:44.033Z,36.23
2018-05-29T06:04:12.365Z,35.77
2018-05-29T06:06:39.979Z,36.60
2018-05-29T06:09:07.488Z,37.27
2018-05-29T06:11:35.139Z,33.83
2018-05-29T06:14:02.685Z,34.70
2018-05-29T06:16:30.216Z,34.00
2018-05-29T06:18:57.743Z,32.43
2018-05-29T06:21:25.282Z,33.30
2018-05-29T06:23:52.821Z,35.13
2018-05-29T06:26:20.374Z,33.60
2018-05-29T06:28:47.893Z,31.70
2018-05-29T06:31:16.176Z,32.70
2018-05-29T06:33:44.465Z,32.53
2018-05-29T06:36:12.091Z,33.10
2018-05-29T06:38:39.657Z,32.83
2018-05-29T06:41:07.942Z,31.90
2018-05-29T06:43:35.481Z,31.43
2018-05-29T06:46:03.010Z,31.33
2018-05-29T06:48:30.648Z,30.53
2018-05-29T06:50:58.168Z,29.57
2018-05-29T06:53:25.690Z,30.50
2018-05-29T06:55:53.320Z,29.23
2018-05-29T06:58:20.869Z,28.43
2018-05-29T07:00:48.399Z,28.87
2018-05-29T07:03:15.934Z,29.90
2018-05-29T07:05:43.565Z,31.37
2018-05-29T07:08:11.092Z,29.30
2018-05-29T07:10:38.680Z,27.47
2018-05-29T07:13:06.205Z,27.50
2018-05-29T07:15:34.537Z,28.87
2018-05-29T07:18:02.078Z,27.37
2018-05-29T07:20:29.633Z,26.20
2018-05-29T07:22:57.164Z,25.13
2018-05-29T07:25:24.683Z,25.03
2018-05-29T07:27:52.208Z,22.90
2018-05-29T07:30:19.735Z,21.83
2018-05-29T07:32:47.429Z,21.70
2018-05-29T07:35:14.978Z,24.97
2018-05-29T07:37:42.507Z,22.73
2018-05-29T07:40:10.180Z,21.33
2018-05-29T07:42:37.711Z,21.67
2018-05-29T07:45:06.066Z,22.97
2018-05-29T07:47:33.576Z,22.60
2018-05-29T07:50:01.124Z,21.47
2018-05-29T07:52:29.448Z,20.73
2018-05-29T07:54:57.032Z,20.33
2018-05-29T07:57:24.587Z,22.17
2018-05-29T07:59:52.406Z,22.10
2018-05-29T08:02:20.692Z,22.20
2018-05-29T08:04:48.275Z,23.43
2018-05-29T08:07:15.796Z,22.93
2018-05-29T08:09:44.093Z,23.83
2018-05-29T08:12:11.619Z,23.87
2018-05-29T08:14:39.165Z,22.73
2018-05-29T08:17:06.694Z,22.30
2018-05-29T08:19:34.410Z,22.37
2018-05-29T08:22:01.969Z,22.07
2018-05-29T08:24:30.372Z,22.03
2018-05-29T08:26:57.932Z,21.83
2018-05-29T08:29:25.464Z,21.20
2018-05-29T08:31:52.987Z,21.50
2018-05-29T08:34:20.608Z,21.10
2018-05-29T08:36:48.161Z,23.87
2018-05-29T08:39:15.704Z,21.03
2018-05-29T08:41:43.220Z,21.37
2018-05-29T08:44:11.568Z,21.10
2018-05-29T08:46:39.335Z,21.47
2018-05-29T08:49:06.863Z,21.40
2018-05-29T08:51:34.440Z,20.87
2018-05-29T08:54:01.979Z,20.40
2018-05-29T08:56:29.564Z,19.30
2018-05-29T08:58:57.107Z,20.87
2018-05-29T09:01:24.640Z,19.73
2018-05-29T09:03:52.324Z,19.60
2018-05-29T09:06:19.855Z,18.90
2018-05-29T09:08:48.139Z,19.10
2018-05-29T09:11:16.445Z,20.07
2018-05-29T09:13:44.051Z,18.13
2018-05-29T09:16:11.583Z,17.13
2018-05-29T09:18:39.183Z,18.23
2018-05-29T09:21:07.501Z,19.20
2018-05-29T09:23:35.029Z,18.43
2018-05-29T09:26:02.557Z,18.07
2018-05-29T09:28:30.875Z,18.47
2018-05-29T09:30:59.205Z,19.33
2018-05-29T09:33:26.764Z,18.50
2018-05-29T09:35:54.293Z,17.63
2018-05-29T09:38:21.829Z,19.60
2018-05-29T09:40:49.374Z,17.03
2018-05-29T09:43:17.712Z,17.20
2018-05-29T09:45:45.300Z,16.47
2018-05-29T09:48:12.836Z,17.13
2018-05-29T09:50:40.570Z,15.40
2018-05-29T09:53:08.126Z,16.60
2018-05-29T09:55:35.799Z,15.60
2018-05-29T09:58:03.335Z,15.70
2018-05-29T10:00:36.527Z,15.73
2018-05-29T10:03:04.094Z,15.13
2018-05-29T10:05:31.641Z,14.80
2018-05-29T10:07:59.180Z,13.43
2018-05-29T10:10:27.596Z,13.83
2018-05-29T10:12:55.136Z,14.43
2018-05-29T10:15:22.672Z,13.97
2018-05-29T10:17:50.375Z,13.90
2018-05-29T10:20:17.906Z,13.23
2018-05-29T10:22:46.223Z,12.50
2018-05-29T10:25:13.752Z,12.73
2018-05-29T10:27:41.283Z,12.23
2018-05-29T10:30:09.592Z,12.83
2018-05-29T10:32:37.144Z,12.27
2018-05-29T10:35:04.694Z,12.17
2018-05-29T10:37:33.146Z,12.73
2018-05-29T10:40:01.579Z,12.90
2018-05-29T10:42:29.117Z,13.40
2018-05-29T10:44:56.684Z,13.07
2018-05-29T10:47:24.236Z,12.97
2018-05-29T10:49:52.582Z,12.83
2018-05-29T10:52:20.122Z,12.60
2018-05-29T10:54:47.730Z,12.27
2018-05-29T10:57:15.244Z,12.40
2018-05-29T10:59:42.922Z,11.70
2018-05-29T11:02:10.532Z,11.30
2018-05-29T11:04:38.221Z,11.47
2018-05-29T11:07:05.765Z,11.67
2018-05-29T11:09:33.332Z,11.60
2018-05-29T11:12:00.846Z,12.13
2018-05-29T11:14:29.148Z,12.07
2018-05-29T11:16:56.676Z,11.80
2018-05-29T11:19:24.203Z,11.90
2018-05-29T11:21:51.821Z,12.87
2018-05-29T11:24:19.420Z,11.37
2018-05-29T11:26:46.961Z,11.63
2018-05-29T11:29:14.495Z,11.97
2018-05-29T11:31:42.122Z,12.30
2018-05-29T11:34:10.410Z,11.87
2018-05-29T11:36:38.727Z,12.30
2018-05-29T11:39:06.256Z,12.43
2018-05-29T11:41:33.780Z,12.00
2018-05-29T11:44:01.324Z,11.10
2018-05-29T11:46:29.100Z,11.00
2018-05-29T11:48:56.642Z,11.90
2018-05-29T11:51:24.217Z,11.00
2018-05-29T11:53:51.765Z,11.47
2018-05-29T11:56:19.280Z,11.33
2018-05-29T11:58:46.815Z,10.93
2018-05-29T12:01:15.106Z,11.10
2018-05-29T12:03:42.654Z,10.83
2018-05-29T12:06:10.188Z,10.97
2018-05-29T12:08:37.708Z,10.67
2018-05-29T12:11:05.247Z,10.77
2018-05-29T12:13:32.799Z,10.23
2018-05-29T12:16:00.314Z,10.37
2018-05-29T12:18:27.872Z,11.37
2018-05-29T12:20:55.380Z,11.10
2018-05-29T12:23:22.894Z,11.27
2018-05-29T12:25:50.437Z,10.67
2018-05-29T12:28:18.005Z,11.77
2018-05-29T12:30:45.543Z,10.67
2018-05-29T12:33:13.067Z,10.30
2018-05-29T12:35:40.621Z,10.33
2018-05-29T12:38:08.178Z,10.97
2018-05-29T12:40:36.581Z,11.10
2018-05-29T12:43:04.124Z,10.83
2018-05-29T12:45:31.667Z,10.97
2018-05-29T12:47:59.198Z,10.87
2018-05-29T12:50:26.755Z,11.07
2018-05-29T12:52:54.304Z,10.90
2018-05-29T12:55:21.829Z,10.57
2018-05-29T12:57:49.423Z,11.23
2018-05-29T13:00:17.255Z,11.20
2018-05-29T13:02:44.887Z,10.70
2018-05-29T13:05:12.463Z,10.67
2018-05-29T13:07:40.052Z,9.93
2018-05-29T13:10:08.017Z,9.70
2018-05-29T13:12:35.558Z,8.70
2018-05-29T13:15:03.155Z,9.00
2018-05-29T13:17:30.618Z,9.37
2018-05-29T13:19:58.206Z,9.77
2018-05-29T13:22:26.539Z,8.70
2018-05-29T13:24:54.078Z,9.57
2018-05-29T13:27:21.605Z,9.00
2018-05-29T13:29:49.930Z,9.43
2018-05-29T13:32:17.472Z,8.87
2018-05-29T13:34:44.994Z,8.67
2018-05-29T13:37:13.282Z,8.10
2018-05-29T13:39:41.590Z,9.20
2018-05-29T13:42:09.132Z,8.77
2018-05-29T13:44:36.684Z,9.07
2018-05-29T13:47:04.247Z,8.87
2018-05-29T13:49:31.784Z,8.97
2018-05-29T13:52:00.092Z,8.53
2018-05-29T13:54:27.630Z,9.70
2018-05-29T13:56:55.154Z,9.30
2018-05-29T13:59:22.688Z,8.97
2018-05-29T14:01:50.211Z,8.37
2018-05-29T14:04:17.734Z,8.80
2018-05-29T14:06:45.316Z,8.20
2018-05-29T14:09:12.828Z,8.70
2018-05-29T14:11:40.404Z,8.03
2018-05-29T14:14:09.424Z,8.17
2018-05-29T14:16:37.043Z,8.37
2018-05-29T14:19:04.582Z,8.43
2018-05-29T14:21:32.110Z,9.17
2018-05-29T14:23:59.652Z,8.90
2018-05-29T14:26:28.151Z,9.80
2018-05-29T14:28:56.459Z,9.87
2018-05-29T14:31:24.023Z,9.57
2018-05-29T14:33:51.553Z,9.20
2018-05-29T14:36:19.089Z,8.53
2018-05-29T14:38:46.644Z,9.33
2018-05-29T14:41:14.966Z,9.70
2018-05-29T14:43:42.558Z,9.37
2018-05-29T14:46:10.087Z,9.40
2018-05-29T14:48:37.741Z,9.23
2018-05-29T14:51:05.289Z,9.87
2018-05-29T14:53:32.844Z,9.17
2018-05-29T14:56:00.378Z,9.03
2018-05-29T14:58:27.936Z,9.57
2018-05-29T15:00:56.224Z,9.83
2018-05-29T15:03:24.524Z,9.10
2018-05-29T15:05:52.084Z,9.67
2018-05-29T15:08:19.634Z,9.30
2018-05-29T15:10:47.178Z,9.20
2018-05-29T15:13:14.701Z,9.17
2018-05-29T15:15:42.231Z,8.93
2018-05-29T15:18:09.793Z,8.90
2018-05-29T15:20:37.426Z,8.77
2018-05-29T15:23:04.962Z,9.10
2018-05-29T15:25:33.268Z,9.00
2018-05-29T15:28:00.816Z,9.20
2018-05-29T15:30:28.368Z,9.17
2018-05-29T15:32:56.656Z,9.27
2018-05-29T15:35:24.268Z,9.03
2018-05-29T15:37:51.798Z,8.93
2018-05-29T15:40:19.323Z,8.53
2018-05-29T15:42:46.954Z,9.10
2018-05-29T15:45:14.608Z,9.53
2018-05-29T15:47:42.178Z,8.90
2018-05-29T15:50:10.503Z,8.13
2018-05-29T15:52:38.050Z,8.53
2018-05-29T15:55:05.608Z,7.40
2018-05-29T15:57:33.141Z,8.60
2018-05-29T16:00:00.714Z,8.47
2018-05-29T16:02:29.020Z,9.23
2018-05-29T16:04:56.548Z,10.00
2018-05-29T16:07:24.078Z,8.50
2018-05-29T16:09:51.673Z,9.17
2018-05-29T16:12:19.205Z,9.17
2018-05-29T16:14:46.922Z,9.20
2018-05-29T16:17:14.480Z,9.10
2018-05-29T16:19:42.032Z,8.87
2018-05-29T16:22:09.574Z,8.63
2018-05-29T16:24:37.106Z,8.57
2018-05-29T16:27:05.402Z,7.93
2018-05-29T16:29:32.960Z,8.33
2018-05-29T16:32:00.648Z,8.13
2018-05-29T16:34:28.367Z,19.00
2018-05-29T16:36:56.695Z,10.87
2018-05-29T16:39:24.263Z,8.67
2018-05-29T16:41:51.820Z,8.63
2018-05-29T16:44:19.396Z,8.00
2018-05-29T16:46:46.956Z,7.23
2018-05-29T16:49:14.496Z,6.97
2018-05-29T16:51:42.028Z,7.30
2018-05-29T16:54:12.186Z,6.70
2018-05-29T16:56:39.737Z,6.83
2018-05-29T16:59:07.290Z,6.93
2018-05-29T17:01:34.834Z,6.40
2018-05-29T17:04:02.394Z,6.80
2018-05-29T17:06:29.922Z,6.13
2018-05-29T17:08:58.215Z,6.37
2018-05-29T17:11:25.747Z,6.20
2018-05-29T17:13:53.278Z,7.00
2018-05-29T17:16:21.107Z,6.00
2018-05-29T17:18:50.621Z,5.70
2018-05-29T17:21:20.426Z,6.20
2018-05-29T17:23:48.026Z,6.30
2018-05-29T17:26:15.610Z,11.17
2018-05-29T17:28:43.196Z,16.17
2018-05-29T17:31:11.492Z,7.20
2018-05-29T17:33:39.068Z,6.47
2018-05-29T17:36:06.654Z,5.67
2018-05-29T17:38:34.899Z,5.27
2018-05-29T17:41:02.478Z,5.43
2018-05-29T17:43:31.212Z,4.83
2018-05-29T17:45:59.741Z,4.43
2018-05-29T17:48:28.105Z,4.33
2018-05-29T17:50:55.638Z,4.80
2018-05-29T17:53:23.208Z,4.43
2018-05-29T17:55:50.742Z,3.90
2018-05-29T17:58:18.294Z,4.10
2018-05-29T18:00:45.830Z,4.03
2018-05-29T18:03:13.388Z,4.10
2018-05-29T18:05:42.426Z,3.93
2018-05-29T18:08:09.964Z,4.03
2018-05-29T18:10:37.507Z,4.00
2018-05-29T18:13:05.788Z,4.17
2018-05-29T18:15:34.140Z,4.33
2018-05-29T18:18:01.702Z,5.27
2018-05-29T18:20:29.250Z,4.63
2018-05-29T18:22:56.804Z,4.80
2018-05-29T18:25:24.350Z,4.60
2018-05-29T18:27:51.912Z,4.97
2018-05-29T18:30:19.462Z,4.77
2018-05-29T18:32:47.014Z,4.77
2018-05-29T18:35:14.530Z,5.63
2018-05-29T18:37:42.055Z,5.90
2018-05-29T18:40:09.604Z,6.50
2018-05-29T18:42:37.142Z,5.50
2018-05-29T18:45:04.705Z,6.20
2018-05-29T18:47:32.240Z,5.60
2018-05-29T18:50:00.584Z,6.33
2018-05-29T18:52:28.095Z,6.80
2018-05-29T18:54:55.630Z,7.10
2018-05-29T18:57:24.119Z,6.60
2018-05-29T18:59:52.428Z,7.27
2018-05-29T19:02:19.996Z,7.07
2018-05-29T19:04:47.539Z,7.47
2018-05-29T19:07:15.065Z,6.03
2018-05-29T19:09:42.644Z,6.87
2018-05-29T19:12:10.209Z,6.53
2018-05-29T19:14:37.748Z,7.03
2018-05-29T19:17:06.137Z,7.83
2018-05-29T19:19:33.661Z,8.50
2018-05-29T19:22:01.180Z,7.90
2018-05-29T19:24:28.736Z,7.97
2018-05-29T19:26:56.285Z,8.67
2018-05-29T19:29:23.811Z,7.70
2018-05-29T19:31:51.388Z,7.80
2018-05-29T19:34:19.725Z,8.07
2018-05-29T19:36:47.353Z,9.23
2018-05-29T19:39:14.898Z,11.17
2018-05-29T19:41:42.433Z,6.80
2018-05-29T19:44:10.731Z,7.33
2018-05-29T19:46:38.252Z,7.70
2018-05-29T19:49:05.801Z,8.13
2018-05-29T19:51:33.332Z,8.27
2018-05-29T19:54:00.887Z,7.93
2018-05-29T19:56:28.408Z,7.70
2018-05-29T19:58:55.952Z,8.60
2018-05-29T20:01:23.511Z,7.87
2018-05-29T20:03:51.825Z,7.97
2018-05-29T20:06:19.374Z,8.37
2018-05-29T20:08:46.891Z,8.40
2018-05-29T20:11:14.436Z,8.00
2018-05-29T20:13:42.005Z,9.30
2018-05-29T20:16:09.575Z,8.57
2018-05-29T20:18:37.126Z,8.07
2018-05-29T20:21:05.213Z,7.90
2018-05-29T20:23:33.520Z,8.43
2018-05-29T20:26:01.280Z,7.23
2018-05-29T20:28:28.819Z,7.60
2018-05-29T20:30:56.352Z,8.00
2018-05-29T20:33:23.909Z,6.70
2018-05-29T20:35:51.429Z,6.07
2018-05-29T20:38:18.960Z,5.70
2018-05-29T20:40:46.547Z,5.10
2018-05-29T20:43:14.094Z,5.53
2018-05-29T20:45:41.625Z,5.30
2018-05-29T20:48:09.920Z,5.57
2018-05-29T20:50:37.441Z,5.83
2018-05-29T20:53:05.003Z,5.87
2018-05-29T20:55:32.538Z,5.63
2018-05-29T20:58:00.106Z,6.50
2018-05-29T21:00:27.659Z,6.10
2018-05-29T21:02:55.181Z,6.00
2018-05-29T21:05:22.699Z,7.17
2018-05-29T21:07:50.243Z,6.80
2018-05-29T21:10:17.791Z,6.53
2018-05-29T21:12:45.323Z,7.27
2018-05-29T21:15:12.889Z,8.13
2018-05-29T21:17:40.489Z,8.40
2018-05-29T21:20:08.057Z,8.57
2018-05-29T21:22:35.603Z,8.73
2018-05-29T21:25:03.159Z,9.13
2018-05-29T21:27:30.711Z,9.57
2018-05-29T21:29:58.249Z,8.73
2018-05-29T21:32:25.781Z,8.20
2018-05-29T21:34:53.352Z,8.80
2018-05-29T21:37:20.907Z,9.07
2018-05-29T21:39:48.440Z,9.00
2018-05-29T21:42:16.725Z,9.30
2018-05-29T21:44:44.240Z,9.13
2018-05-29T21:47:11.803Z,9.20
2018-05-29T21:49:39.355Z,9.80
2018-05-29T21:52:06.898Z,9.57
2018-05-29T21:54:34.419Z,9.60
2018-05-29T21:57:01.953Z,9.80
2018-05-29T21:59:29.540Z,10.07
2018-05-29T22:01:57.078Z,9.67
2018-05-29T22:04:24.625Z,10.23
2018-05-29T22:06:52.177Z,10.23
2018-05-29T22:09:19.703Z,10.17
2018-05-29T22:11:47.239Z,10.93
2018-05-29T22:14:15.536Z,10.23
2018-05-29T22:16:43.094Z,10.53
2018-05-29T22:19:10.645Z,10.53
2018-05-29T22:21:38.212Z,11.10
2018-05-29T22:24:06.030Z,11.43
2018-05-29T22:26:34.344Z,10.50
2018-05-29T22:29:01.891Z,10.60
2018-05-29T22:31:29.451Z,10.30
2018-05-29T22:33:57.095Z,10.50
2018-05-29T22:36:25.471Z,10.40
2018-05-29T22:38:53.808Z,10.57
2018-05-29T22:41:21.333Z,10.43
2018-05-29T22:43:48.907Z,10.60
2018-05-29T22:46:16.448Z,11.77
2018-05-29T22:48:44.046Z,10.70
2018-05-29T22:51:11.659Z,11.40
2018-05-29T22:53:39.896Z,10.67
2018-05-29T22:56:07.423Z,12.03
2018-05-29T22:58:34.949Z,11.40
2018-05-29T23:01:02.528Z,12.10
2018-05-29T23:03:30.083Z,12.40
2018-05-29T23:05:59.586Z,13.53
2018-05-29T23:08:27.119Z,12.30
2018-05-29T23:10:55.453Z,14.07
2018-05-29T23:13:22.995Z,12.27
2018-05-29T23:15:50.524Z,13.43
2018-05-29T23:18:18.048Z,12.97
2018-05-29T23:20:45.585Z,12.40
2018-05-29T23:23:13.118Z,13.40
2018-05-29T23:25:40.650Z,12.67
2018-05-29T23:28:08.175Z,13.57
2018-05-29T23:30:35.770Z,12.57
2018-05-29T23:33:04.072Z,12.67
2018-05-29T23:35:31.599Z,13.63
2018-05-29T23:37:59.876Z,13.47
2018-05-29T23:40:28.163Z,13.17
2018-05-29T23:42:55.693Z,13.80
2018-05-29T23:45:23.229Z,13.87
2018-05-29T23:47:50.774Z,14.30
2018-05-29T23:50:18.308Z,13.97
2018-05-29T23:52:45.860Z,14.03
2018-05-29T23:55:13.374Z,13.40
2018-05-29T23:57:40.905Z,14.63
